createdAt,value
2022-09-28T00:02:16.655Z,7.12
2022-09-28T00:27:25.468Z,7.28
2022-09-28T00:52:34.530Z,7.38
2022-09-28T00:57:42.505Z,7.43
2022-09-28T01:02:43.769Z,7.45
2022-09-28T01:07:45.213Z,7.48
2022-09-28T01:12:46.823Z,7.48
2022-09-28T01:17:48.916Z,7.47
2022-09-28T01:22:50.686Z,7.45
2022-09-28T01:27:52.283Z,7.45
2022-09-28T01:32:53.907Z,7.46
2022-09-28T01:37:55.728Z,7.48
2022-09-28T01:42:57.060Z,7.49
2022-09-28T01:47:58.444Z,7.5
2022-09-28T01:53:00.113Z,7.5
2022-09-28T01:58:01.685Z,7.51
2022-09-28T02:03:02.960Z,7.52
2022-09-28T02:08:04.138Z,7.51
2022-09-28T02:13:05.941Z,7.48
2022-09-28T02:18:07.311Z,7.45
2022-09-28T02:23:09.214Z,7.44
2022-09-28T02:28:10.744Z,7.43
2022-09-28T02:33:12.792Z,7.4
2022-09-28T02:38:14.430Z,7.37
2022-09-28T02:43:16.239Z,7.32
2022-09-28T02:48:24.032Z,7.27
2022-09-28T02:53:20.596Z,7.22
2022-09-28T02:58:22.562Z,7.18
2022-09-28T03:03:24.504Z,7.12
2022-09-28T03:08:26.458Z,7.08
2022-09-28T03:13:27.673Z,7.05
2022-09-28T03:18:29.353Z,7
2022-09-28T03:23:31.411Z,6.95
2022-09-28T03:28:33.470Z,6.92
2022-09-28T03:33:35.346Z,6.87
2022-09-28T03:38:37.211Z,6.83
2022-09-28T03:43:38.869Z,6.82
2022-09-28T03:48:40.506Z,6.81
2022-09-28T03:53:41.908Z,6.82
2022-09-28T03:58:44.019Z,6.83
2022-09-28T04:03:46.202Z,6.85
2022-09-28T04:08:47.376Z,6.87
2022-09-28T04:13:49.032Z,6.88
2022-09-28T04:18:50.532Z,6.92
2022-09-28T04:23:52.696Z,6.95
2022-09-28T04:28:53.941Z,6.99
2022-09-28T04:33:55.495Z,7.02
2022-09-28T04:38:57.281Z,7.05
2022-09-28T04:43:58.846Z,7.1
2022-09-28T04:49:00.366Z,7.13
2022-09-28T04:54:02.447Z,7.16
2022-09-28T04:59:04.174Z,7.19
2022-09-28T05:04:06.031Z,7.25
2022-09-28T05:09:07.334Z,7.29
2022-09-28T05:14:08.670Z,7.32
2022-09-28T05:19:09.940Z,7.36
2022-09-28T05:24:11.289Z,7.38
2022-09-28T05:29:13.326Z,7.42
2022-09-28T05:34:15.367Z,7.46
2022-09-28T05:39:17.087Z,7.49
2022-09-28T05:44:19.275Z,7.51
2022-09-28T05:49:21.083Z,7.52
2022-09-28T05:54:31.694Z,7.53
2022-09-28T05:59:24.633Z,7.54
2022-09-28T06:04:26.396Z,7.54
2022-09-28T06:09:28.139Z,7.55
2022-09-28T06:14:30.297Z,7.55
2022-09-28T06:19:31.862Z,7.58
2022-09-28T06:24:33.781Z,7.6
2022-09-28T06:29:35.239Z,7.62
2022-09-28T06:34:36.526Z,7.66
2022-09-28T06:39:38.343Z,7.71
2022-09-28T06:44:40.211Z,7.74
2022-09-28T06:49:41.694Z,7.77
2022-09-28T06:54:43.173Z,7.81
2022-09-28T06:59:44.389Z,7.84
2022-09-28T07:04:46.208Z,7.88
2022-09-28T07:09:51.364Z,7.91
2022-09-28T07:14:50.715Z,7.93
2022-09-28T07:19:52.112Z,7.96
2022-09-28T07:24:54.177Z,7.99
2022-09-28T07:29:55.926Z,8
2022-09-28T07:34:58.710Z,8.03
2022-09-28T07:39:59.700Z,8.07
2022-09-28T07:45:01.146Z,8.13
2022-09-28T07:50:02.671Z,8.22
2022-09-28T07:55:06.975Z,8.3
2022-09-28T08:00:05.551Z,8.35
2022-09-28T08:05:07.189Z,8.41
2022-09-28T08:10:08.745Z,8.47
2022-09-28T08:15:10.092Z,8.5
2022-09-28T08:20:12.253Z,8.55
2022-09-28T08:25:13.596Z,8.59
2022-09-28T08:30:15.634Z,8.59
2022-09-28T08:35:17.614Z,8.62
2022-09-28T08:40:19.770Z,8.68
2022-09-28T08:45:22.517Z,8.75
2022-09-28T08:50:23.100Z,8.76
2022-09-28T08:55:24.347Z,8.66
2022-09-28T09:00:26.349Z,8.45
2022-09-28T09:05:27.971Z,8.35
2022-09-28T09:10:29.517Z,8.37
2022-09-28T09:15:31.119Z,8.22
2022-09-28T09:20:32.899Z,8.18
2022-09-28T09:25:38.351Z,8.18
2022-09-28T09:30:36.751Z,8.28
2022-09-28T09:35:38.529Z,8.33
2022-09-28T09:40:40.677Z,8.39
2022-09-28T09:45:42.085Z,8.45
2022-09-28T09:50:43.795Z,8.5
2022-09-28T09:55:45.070Z,8.51
2022-09-28T10:00:46.686Z,8.56
2022-09-28T10:05:48.415Z,8.66
2022-09-28T10:10:50.569Z,8.76
2022-09-28T10:15:51.737Z,8.85
2022-09-28T10:20:53.382Z,8.85
2022-09-28T10:25:55.212Z,8.87
2022-09-28T10:30:57.119Z,8.96
2022-09-28T10:35:58.986Z,9.1
2022-09-28T10:41:01.028Z,9.2
2022-09-28T10:46:02.510Z,9.21
2022-09-28T10:51:04.380Z,9.26
2022-09-28T10:56:05.693Z,9.35
2022-09-28T11:01:07.835Z,9.39
2022-09-28T11:06:09.631Z,9.39
2022-09-28T11:11:10.823Z,9.43
2022-09-28T11:16:12.586Z,9.47
2022-09-28T11:21:14.390Z,9.47
2022-09-28T11:26:18.693Z,9.53
2022-09-28T11:31:17.919Z,9.58
2022-09-28T11:36:19.111Z,9.62
2022-09-28T11:41:20.468Z,9.64
2022-09-28T11:46:22.648Z,9.64
2022-09-28T11:51:24.684Z,9.68
2022-09-28T11:56:26.133Z,9.79
2022-09-28T12:01:27.643Z,9.84
2022-09-28T12:06:29.679Z,9.77
2022-09-28T12:11:31.623Z,9.77
2022-09-28T12:17:00.789Z,9.8
2022-09-28T12:21:34.764Z,9.8
2022-09-28T12:26:37.394Z,9.82
2022-09-28T12:31:38.257Z,9.82
2022-09-28T12:36:39.957Z,9.81
2022-09-28T12:41:41.374Z,9.81
2022-09-28T12:46:42.767Z,9.71
2022-09-28T12:51:44.408Z,9.67
2022-09-28T12:56:46.430Z,9.63
2022-09-28T13:01:47.891Z,9.59
2022-09-28T13:06:49.107Z,9.64
2022-09-28T13:11:50.808Z,9.6
2022-09-28T13:16:53.064Z,9.57
2022-09-28T13:21:53.565Z,9.5
2022-09-28T13:26:55.063Z,9.45
2022-09-28T13:31:56.667Z,9.41
2022-09-28T13:36:58.016Z,9.42
2022-09-28T13:41:59.792Z,9.35
2022-09-28T13:47:10.361Z,9.35
2022-09-28T13:57:04.103Z,9.34
2022-09-28T14:02:07.018Z,9.26
2022-09-28T14:07:07.834Z,9.25
2022-09-28T14:12:09.168Z,9.26
2022-09-28T14:17:11.050Z,9.22
2022-09-28T14:32:16.472Z,9.28
2022-09-28T14:37:18.280Z,9.3
2022-09-28T14:57:25.184Z,9.25
2022-09-28T15:02:27.261Z,9.21
2022-09-28T15:07:29.189Z,9.21
2022-09-28T15:12:30.557Z,9.16
2022-09-28T15:22:33.992Z,9.13
2022-09-28T15:27:35.341Z,9.13
2022-09-28T15:37:40.589Z,9.08
2022-09-28T15:47:41.541Z,9
2022-09-28T15:52:43.327Z,8.96
2022-09-28T15:57:45.334Z,8.93
2022-09-28T16:02:46.672Z,8.88
2022-09-28T16:07:49.829Z,8.83
2022-09-28T16:12:49.350Z,8.79
2022-09-28T16:17:50.817Z,8.72
2022-09-28T16:22:52.038Z,8.68
2022-09-28T16:27:54.168Z,8.64
2022-09-28T16:32:56.305Z,8.59
2022-09-28T16:38:02.919Z,8.56
2022-09-28T16:42:59.514Z,8.51
2022-09-28T16:48:01.598Z,8.46
2022-09-28T16:53:03.631Z,8.42
2022-09-28T16:58:05.316Z,8.38
2022-09-28T17:03:07.100Z,8.33
2022-09-28T17:08:08.693Z,8.28
2022-09-28T17:13:10.559Z,8.25
2022-09-28T17:18:12.238Z,8.18
2022-09-28T17:23:13.444Z,8.13
2022-09-28T17:28:15.214Z,8.09
2022-09-28T17:33:17.099Z,8.04
2022-09-28T17:38:19.279Z,8.01
2022-09-28T17:43:27.449Z,7.96
2022-09-28T17:48:29.582Z,7.94
2022-09-28T17:53:31.515Z,7.92
2022-09-28T17:58:33.344Z,7.87
2022-09-28T18:03:34.743Z,7.86
2022-09-28T18:08:36.076Z,7.81
2022-09-28T18:13:37.463Z,7.79
2022-09-28T18:18:38.881Z,7.75
2022-09-28T18:23:40.102Z,7.72
2022-09-28T18:28:42.150Z,7.71
2022-09-28T18:33:43.829Z,7.67
2022-09-28T18:38:45.738Z,7.64
2022-09-28T18:43:47.615Z,7.59
2022-09-28T18:48:49.805Z,7.56
2022-09-28T18:53:51.144Z,7.51
2022-09-28T18:58:53.205Z,7.49
2022-09-28T19:03:54.470Z,7.46
2022-09-28T19:08:56.186Z,7.44
2022-09-28T19:13:57.627Z,7.42
2022-09-28T19:18:59.276Z,7.39
2022-09-28T19:24:01.284Z,7.39
2022-09-28T19:29:02.999Z,7.4
2022-09-28T19:34:05.039Z,7.39
2022-09-28T19:39:06.925Z,7.39
2022-09-28T19:44:08.342Z,7.39
2022-09-28T19:49:09.671Z,7.39
2022-09-28T19:54:11.093Z,7.38
2022-09-28T19:59:12.535Z,7.37
2022-09-28T20:04:14.374Z,7.37
2022-09-28T20:09:16.453Z,7.37
2022-09-28T20:14:18.073Z,7.36
2022-09-28T20:19:20.213Z,7.35
2022-09-28T20:24:21.972Z,7.35
2022-09-28T20:29:23.904Z,7.35
2022-09-28T20:34:25.900Z,7.35
2022-09-28T20:39:27.587Z,7.35
2022-09-28T20:44:29.343Z,7.33
2022-09-28T20:49:30.786Z,7.33
2022-09-28T20:54:32.838Z,7.33
2022-09-28T20:59:34.731Z,7.31
2022-09-28T21:04:36.683Z,7.3
2022-09-28T21:09:38.034Z,7.29
2022-09-28T21:14:39.453Z,7.26
2022-09-28T21:19:41.444Z,7.25
2022-09-28T21:24:42.805Z,7.25
2022-09-28T21:29:44.845Z,7.23
2022-09-28T21:34:46.301Z,7.22
2022-09-28T21:39:47.671Z,7.21
2022-09-28T21:44:49.505Z,7.21
2022-09-28T21:49:50.711Z,7.21
2022-09-28T21:54:52.247Z,7.21
2022-09-28T21:59:53.809Z,7.2
2022-09-28T22:14:59.242Z,7.16
2022-09-28T22:20:01.313Z,7.14
2022-09-28T22:25:02.563Z,7.14
2022-09-28T22:30:03.822Z,7.11
2022-09-28T22:35:05.091Z,7.09
2022-09-28T22:40:07.189Z,7.06
2022-09-28T22:45:09.295Z,7.06
2022-09-28T22:50:11.474Z,7.03
2022-09-28T22:55:13.306Z,7.01
2022-09-28T23:00:15.394Z,7.01
2022-09-28T23:05:16.601Z,7.01
2022-09-28T23:10:18.598Z,7.01
2022-09-28T23:15:19.823Z,7
2022-09-28T23:20:21.046Z,7
2022-09-28T23:25:22.998Z,7
2022-09-28T23:30:24.739Z,7
2022-09-28T23:35:26.238Z,6.99
2022-09-28T23:40:27.479Z,6.98
2022-09-28T23:45:29.210Z,6.99
2022-09-28T23:50:30.896Z,6.99
2022-09-28T23:55:32.930Z,6.98
